createdAt,value
2023-03-14T00:00:59.678Z,28.17
2023-03-14T00:04:05.459Z,26.40
2023-03-14T00:07:08.255Z,26.48
2023-03-14T00:10:14.724Z,29.10
2023-03-14T00:13:17.560Z,28.83
2023-03-14T00:16:23.428Z,28.75
2023-03-14T00:19:26.226Z,28.27
2023-03-14T00:22:28.984Z,29.23
2023-03-14T00:25:31.895Z,25.13
2023-03-14T00:28:35.107Z,31.17
2023-03-14T00:31:38.262Z,28.70
2023-03-14T00:34:41.150Z,29.23
2023-03-14T00:37:43.910Z,31.95
2023-03-14T00:40:46.702Z,28.77
2023-03-14T00:43:50.472Z,31.88
2023-03-14T00:46:53.331Z,31.75
2023-03-14T00:49:56.199Z,31.47
2023-03-14T00:52:59.852Z,32.47
2023-03-14T00:56:07.394Z,30.25
2023-03-14T00:59:10.464Z,33.63
2023-03-14T01:02:13.565Z,30.60
2023-03-14T01:05:16.556Z,32.77
2023-03-14T01:08:19.509Z,26.65
2023-03-14T01:11:31.809Z,32.42
2023-03-14T01:14:34.810Z,29.15
2023-03-14T01:17:39.095Z,23.95
2023-03-14T01:20:41.856Z,21.40
2023-03-14T01:23:45.608Z,24.67
2023-03-14T01:26:48.313Z,25.60
2023-03-14T01:29:51.050Z,26.10
2023-03-14T01:32:55.567Z,28.95
2023-03-14T01:35:58.405Z,24.67
2023-03-14T01:39:01.238Z,26.10
2023-03-14T01:42:05.058Z,26.38
2023-03-14T01:45:46.555Z,24.63
2023-03-14T01:48:55.182Z,24.38
2023-03-14T01:52:27.504Z,26.43
2023-03-14T01:55:30.600Z,26.13
2023-03-14T01:58:35.750Z,25.10
2023-03-14T02:01:42.215Z,29.90
2023-03-14T02:04:45.375Z,25.23
2023-03-14T02:07:59.128Z,26.60
2023-03-14T02:11:09.459Z,27.95
2023-03-14T02:14:35.512Z,30.80
2023-03-14T02:18:05.318Z,30.90
2023-03-14T02:21:43.472Z,27.02
2023-03-14T02:25:17.909Z,29.93
2023-03-14T02:28:21.692Z,28.90
2023-03-14T02:31:27.894Z,24.23
2023-03-14T02:34:32.861Z,32.97
2023-03-14T02:37:56.586Z,27.63
2023-03-14T02:41:01.175Z,27.90
2023-03-14T02:44:05.714Z,33.72
2023-03-14T02:47:10.527Z,28.85
2023-03-14T02:50:21.527Z,28.00
2023-03-14T02:53:33.881Z,29.63
2023-03-14T02:56:41.490Z,31.97
2023-03-14T02:59:47.293Z,27.25
2023-03-14T03:02:54.496Z,26.25
2023-03-14T03:05:58.364Z,28.23
2023-03-14T03:09:01.834Z,23.95
2023-03-14T03:12:04.992Z,30.83
2023-03-14T03:15:08.828Z,30.10
2023-03-14T03:18:13.748Z,25.98
2023-03-14T03:21:20.005Z,25.10
2023-03-14T03:24:22.842Z,27.25
2023-03-14T03:27:25.578Z,26.73
2023-03-14T03:30:29.703Z,27.90
2023-03-14T03:33:32.763Z,31.45
2023-03-14T03:36:35.664Z,29.20
2023-03-14T03:39:38.527Z,24.70
2023-03-14T03:42:41.509Z,25.67
2023-03-14T03:45:46.240Z,23.63
2023-03-14T03:48:49.354Z,25.23
2023-03-14T03:51:53.218Z,21.33
2023-03-14T03:54:56.303Z,21.63
2023-03-14T03:57:59.116Z,20.67
2023-03-14T04:01:03.287Z,24.48
2023-03-14T04:04:06.392Z,25.30
2023-03-14T04:07:10.472Z,31.65
2023-03-14T04:10:13.772Z,28.77
2023-03-14T04:13:23.053Z,21.13
2023-03-14T04:16:28.598Z,23.48
2023-03-14T04:19:38.446Z,20.30
2023-03-14T04:22:44.472Z,21.77
2023-03-14T04:25:47.638Z,17.45
2023-03-14T04:28:51.428Z,13.57
2023-03-14T04:31:55.934Z,14.55
2023-03-14T04:34:58.827Z,16.35
2023-03-14T04:38:01.828Z,12.90
2023-03-14T04:41:07.449Z,13.23
2023-03-14T04:44:11.597Z,16.70
2023-03-14T04:47:14.595Z,17.15
2023-03-14T04:50:18.264Z,13.18
2023-03-14T04:53:22.732Z,17.63
2023-03-14T04:56:28.975Z,28.13
2023-03-14T04:59:32.500Z,24.33
2023-03-14T05:02:44.053Z,17.30
2023-03-14T05:06:09.923Z,13.10
2023-03-14T05:09:38.515Z,13.90
2023-03-14T05:12:47.189Z,19.70
2023-03-14T05:16:28.222Z,20.70
2023-03-14T05:19:39.965Z,21.73
2023-03-14T05:23:04.501Z,18.05
2023-03-14T05:26:25.737Z,18.80
2023-03-14T05:29:35.542Z,16.55
2023-03-14T05:32:58.306Z,18.83
2023-03-14T05:36:19.881Z,18.17
2023-03-14T05:39:45.640Z,16.35
2023-03-14T05:43:09.244Z,13.85
2023-03-14T05:46:38.272Z,14.05
2023-03-14T05:49:59.434Z,15.93
2023-03-14T05:53:31.441Z,14.98
2023-03-14T05:56:51.369Z,19.23
2023-03-14T06:00:13.156Z,23.83
2023-03-14T06:03:17.354Z,26.17
2023-03-14T06:06:23.369Z,16.03
2023-03-14T06:09:26.311Z,19.27
2023-03-14T06:12:33.050Z,17.40
2023-03-14T06:15:37.042Z,21.33
2023-03-14T06:18:40.322Z,21.40
2023-03-14T06:21:44.912Z,15.77
2023-03-14T06:24:48.031Z,15.63
2023-03-14T06:27:52.739Z,19.45
2023-03-14T06:30:57.226Z,23.92
2023-03-14T06:34:00.358Z,29.70
2023-03-14T06:37:06.909Z,23.23
2023-03-14T06:40:12.499Z,20.58
2023-03-14T06:43:35.613Z,16.83
2023-03-14T06:46:38.805Z,19.20
2023-03-14T06:49:42.005Z,23.20
2023-03-14T06:52:49.148Z,20.00
2023-03-14T06:55:57.186Z,21.88
2023-03-14T06:59:01.901Z,21.92
2023-03-14T07:02:12.086Z,27.38
2023-03-14T07:05:16.194Z,16.25
2023-03-14T07:08:21.249Z,19.23
2023-03-14T07:11:25.688Z,18.58
2023-03-14T07:14:28.763Z,15.13
2023-03-14T07:17:31.790Z,18.05
2023-03-14T07:20:35.333Z,14.40
2023-03-14T07:23:40.332Z,14.07
2023-03-14T07:26:44.517Z,15.13
2023-03-14T07:29:47.713Z,11.63
2023-03-14T07:32:50.878Z,13.85
2023-03-14T07:35:54.691Z,21.13
2023-03-14T07:38:57.741Z,38.83
2023-03-14T07:42:18.938Z,44.67
2023-03-14T07:45:43.104Z,11.95
2023-03-14T07:48:46.131Z,8.98
2023-03-14T07:51:50.180Z,10.10
2023-03-14T07:54:52.926Z,11.13
2023-03-14T07:57:56.563Z,8.27
2023-03-14T08:01:04.202Z,10.57
2023-03-14T08:04:07.090Z,17.98
2023-03-14T08:07:11.769Z,10.55
2023-03-14T08:10:23.475Z,12.07
2023-03-14T08:13:26.875Z,19.00
2023-03-14T08:16:31.549Z,14.05
2023-03-14T08:19:34.434Z,11.05
2023-03-14T08:22:37.181Z,9.70
2023-03-14T08:25:40.417Z,7.40
2023-03-14T08:28:43.398Z,8.85
2023-03-14T08:31:46.504Z,11.68
2023-03-14T08:34:49.828Z,9.05
2023-03-14T08:37:53.312Z,9.80
2023-03-14T08:40:58.697Z,7.80
2023-03-14T08:44:01.560Z,9.60
2023-03-14T08:47:04.650Z,10.30
2023-03-14T08:50:08.486Z,8.32
2023-03-14T08:53:13.434Z,8.15
2023-03-14T08:56:16.446Z,9.53
2023-03-14T08:59:19.674Z,8.70
2023-03-14T09:02:25.361Z,7.53
2023-03-14T09:05:28.269Z,9.45
2023-03-14T09:08:31.191Z,8.30
2023-03-14T09:11:34.288Z,8.30
2023-03-14T09:14:37.021Z,8.10
2023-03-14T09:17:39.828Z,8.07
2023-03-14T09:20:44.130Z,6.30
2023-03-14T09:23:48.117Z,8.20
2023-03-14T09:26:51.193Z,9.37
2023-03-14T09:29:54.281Z,8.98
2023-03-14T09:32:58.335Z,10.30
2023-03-14T09:36:01.375Z,11.13
2023-03-14T09:39:05.454Z,7.20
2023-03-14T09:42:14.430Z,9.30
2023-03-14T09:45:24.741Z,7.63
2023-03-14T09:48:34.590Z,5.75
2023-03-14T09:51:38.273Z,12.00
2023-03-14T09:55:04.881Z,8.52
2023-03-14T09:58:14.037Z,7.80
2023-03-14T10:01:21.822Z,8.80
2023-03-14T10:04:25.278Z,10.10
2023-03-14T10:07:31.684Z,8.98
2023-03-14T10:10:36.459Z,9.05
2023-03-14T10:13:50.324Z,7.20
2023-03-14T10:16:53.154Z,8.85
2023-03-14T10:19:58.729Z,8.82
2023-03-14T10:23:08.074Z,9.60
2023-03-14T10:26:19.231Z,6.22
2023-03-14T10:29:23.236Z,8.90
2023-03-14T10:32:35.522Z,6.53
2023-03-14T10:35:38.861Z,10.23
2023-03-14T10:38:42.340Z,8.27
2023-03-14T10:41:51.687Z,7.53
2023-03-14T10:45:23.815Z,7.90
2023-03-14T10:48:38.597Z,5.13
2023-03-14T10:51:42.169Z,6.45
2023-03-14T10:54:53.325Z,6.38
2023-03-14T10:57:56.893Z,4.95
2023-03-14T11:01:15.188Z,4.90
2023-03-14T11:04:21.319Z,5.53
2023-03-14T11:07:44.555Z,6.68
2023-03-14T11:10:52.457Z,5.22
2023-03-14T11:14:07.710Z,5.88
2023-03-14T11:17:27.013Z,6.43
2023-03-14T11:20:33.927Z,6.25
2023-03-14T11:23:51.310Z,8.30
2023-03-14T11:27:17.547Z,6.18
2023-03-14T11:30:26.614Z,6.30
2023-03-14T11:33:47.196Z,3.90
2023-03-14T11:37:12.964Z,5.60
2023-03-14T11:40:20.772Z,5.38
2023-03-14T11:43:44.145Z,4.40
2023-03-14T11:47:16.449Z,5.65
2023-03-14T11:50:26.857Z,3.23
2023-03-14T11:53:58.587Z,4.03
2023-03-14T11:57:22.233Z,4.97
2023-03-14T12:00:28.486Z,3.97
2023-03-14T12:03:44.873Z,5.63
2023-03-14T12:06:52.102Z,6.13
2023-03-14T12:09:56.279Z,5.32
2023-03-14T12:12:59.819Z,3.78
2023-03-14T12:16:22.806Z,11.10
2023-03-14T12:19:32.109Z,3.58
2023-03-14T12:22:43.201Z,3.57
2023-03-14T12:25:46.069Z,3.42
2023-03-14T12:29:11.500Z,4.00
2023-03-14T12:32:25.357Z,3.15
2023-03-14T12:35:46.030Z,3.70
2023-03-14T12:39:11.707Z,5.07
2023-03-14T12:42:18.357Z,5.43
2023-03-14T12:45:36.295Z,3.92
2023-03-14T12:48:40.817Z,5.22
2023-03-14T12:51:45.762Z,6.70
2023-03-14T12:55:01.841Z,4.27
2023-03-14T12:58:31.036Z,5.20
2023-03-14T13:01:35.941Z,3.88
2023-03-14T13:05:05.631Z,3.65
2023-03-14T13:08:10.627Z,3.50
2023-03-14T13:11:17.239Z,2.43
2023-03-14T13:14:20.293Z,4.40
2023-03-14T13:17:42.652Z,3.42
2023-03-14T13:20:52.654Z,3.63
2023-03-14T13:24:07.015Z,4.47
2023-03-14T13:27:20.569Z,4.20
2023-03-14T13:30:30.601Z,2.90
2023-03-14T13:33:35.537Z,5.57
2023-03-14T13:36:38.865Z,7.38
2023-03-14T13:39:41.845Z,5.32
2023-03-14T13:42:45.063Z,6.33
2023-03-14T13:45:58.515Z,7.90
2023-03-14T13:49:08.667Z,5.80
2023-03-14T13:52:38.774Z,6.95
2023-03-14T13:55:41.615Z,8.82
2023-03-14T13:58:44.938Z,8.40
2023-03-14T14:01:48.839Z,6.85
2023-03-14T14:04:52.009Z,6.38
2023-03-14T14:07:55.552Z,9.35
2023-03-14T14:11:03.065Z,7.15
2023-03-14T14:14:11.226Z,18.03
2023-03-14T14:17:19.588Z,20.20
2023-03-14T14:20:36.417Z,19.40
2023-03-14T14:23:39.895Z,12.80
2023-03-14T14:26:59.912Z,12.52
2023-03-14T14:30:06.408Z,7.70
2023-03-14T14:33:22.457Z,28.83
2023-03-14T14:36:40.845Z,22.58
2023-03-14T14:39:43.610Z,18.17
2023-03-14T14:42:47.924Z,12.07
2023-03-14T14:45:53.581Z,11.33
2023-03-14T14:48:58.536Z,12.48
2023-03-14T14:52:05.862Z,11.35
2023-03-14T14:55:20.844Z,15.10
2023-03-14T14:58:29.048Z,13.85
2023-03-14T15:01:42.977Z,14.03
2023-03-14T15:04:45.725Z,20.63
2023-03-14T15:07:48.724Z,17.70
2023-03-14T15:10:51.577Z,11.27
2023-03-14T15:13:55.752Z,9.55
2023-03-14T15:16:58.550Z,12.07
2023-03-14T15:20:01.325Z,14.02
2023-03-14T15:23:10.553Z,12.30
2023-03-14T15:26:17.082Z,11.23
2023-03-14T15:29:20.098Z,19.38
2023-03-14T15:32:23.181Z,15.83
2023-03-14T15:35:26.061Z,12.38
2023-03-14T15:38:28.980Z,13.27
2023-03-14T15:41:31.931Z,13.95
2023-03-14T15:44:35.191Z,26.58
2023-03-14T15:47:37.973Z,26.73
2023-03-14T15:50:41.684Z,30.90
2023-03-14T15:53:45.122Z,37.75
2023-03-14T15:56:47.993Z,32.53
2023-03-14T15:59:50.951Z,37.10
2023-03-14T16:02:53.844Z,36.67
2023-03-14T16:05:56.928Z,29.90
2023-03-14T16:09:00.749Z,38.45
2023-03-14T16:12:05.992Z,32.90
2023-03-14T16:15:10.317Z,37.35
2023-03-14T16:18:21.665Z,42.63
2023-03-14T16:21:25.037Z,43.65
2023-03-14T16:24:28.904Z,49.60
2023-03-14T16:27:32.080Z,40.17
2023-03-14T16:30:34.792Z,51.47
2023-03-14T16:33:39.241Z,46.03
2023-03-14T16:36:42.368Z,43.90
2023-03-14T16:40:10.438Z,34.13
2023-03-14T16:43:16.340Z,21.98
2023-03-14T16:46:19.900Z,21.58
2023-03-14T16:49:27.803Z,34.77
2023-03-14T16:52:30.761Z,61.28
2023-03-14T16:55:33.628Z,57.00
2023-03-14T16:58:36.882Z,54.30
2023-03-14T17:01:41.273Z,74.25
2023-03-14T17:04:44.075Z,53.40
2023-03-14T17:07:46.802Z,49.75
2023-03-14T17:10:53.749Z,45.53
2023-03-14T17:13:56.787Z,51.30
2023-03-14T17:17:02.313Z,71.38
2023-03-14T17:20:09.419Z,57.13
2023-03-14T17:23:12.867Z,60.08
2023-03-14T17:26:15.778Z,57.47
2023-03-14T17:29:19.012Z,70.30
2023-03-14T17:32:21.950Z,117.07
2023-03-14T17:35:24.677Z,115.87
2023-03-14T17:38:27.622Z,120.45
2023-03-14T17:41:30.585Z,126.95
2023-03-14T17:44:34.988Z,96.35
2023-03-14T17:47:38.221Z,56.78
2023-03-14T17:50:42.383Z,35.93
2023-03-14T17:53:45.617Z,21.30
2023-03-14T17:56:49.200Z,16.15
2023-03-14T17:59:53.996Z,19.17
2023-03-14T18:02:59.141Z,12.30
2023-03-14T18:06:11.077Z,9.63
2023-03-14T18:09:14.886Z,14.63
2023-03-14T18:12:17.737Z,20.15
2023-03-14T18:15:21.269Z,11.95
2023-03-14T18:18:25.212Z,6.10
2023-03-14T18:21:30.337Z,9.03
2023-03-14T18:24:33.686Z,7.68
2023-03-14T18:27:38.374Z,7.53
2023-03-14T18:30:43.620Z,5.40
2023-03-14T18:33:48.057Z,10.88
2023-03-14T18:36:51.056Z,5.13
2023-03-14T18:39:54.578Z,7.60
2023-03-14T18:42:57.682Z,4.30
2023-03-14T18:46:01.269Z,7.60
2023-03-14T18:49:04.932Z,7.78
2023-03-14T18:52:08.170Z,7.50
2023-03-14T18:55:11.243Z,9.75
2023-03-14T18:58:14.687Z,16.73
2023-03-14T19:01:18.182Z,12.35
2023-03-14T19:04:21.730Z,13.15
2023-03-14T19:07:25.091Z,6.00
2023-03-14T19:10:28.279Z,5.70
2023-03-14T19:13:33.051Z,5.38
2023-03-14T19:16:36.267Z,3.70
2023-03-14T19:19:39.549Z,4.93
2023-03-14T19:22:43.621Z,4.13
2023-03-14T19:25:46.380Z,4.22
2023-03-14T19:28:49.088Z,4.15
2023-03-14T19:31:54.144Z,4.13
2023-03-14T19:34:57.749Z,4.97
2023-03-14T19:38:00.871Z,5.10
2023-03-14T19:41:04.650Z,3.25
2023-03-14T19:44:08.237Z,4.40
2023-03-14T19:47:11.195Z,7.00
2023-03-14T19:50:14.397Z,7.28
2023-03-14T19:53:17.764Z,6.23
2023-03-14T19:56:24.478Z,5.13
2023-03-14T19:59:27.541Z,6.70
2023-03-14T20:02:31.695Z,7.03
2023-03-14T20:05:34.836Z,4.90
2023-03-14T20:08:38.388Z,4.87
2023-03-14T20:11:42.888Z,6.32
2023-03-14T20:14:45.986Z,7.70
2023-03-14T20:17:49.858Z,3.80
2023-03-14T20:20:57.061Z,4.38
2023-03-14T20:24:00.263Z,5.40
2023-03-14T20:27:04.361Z,4.57
2023-03-14T20:30:12.981Z,5.45
2023-03-14T20:33:20.174Z,3.25
2023-03-14T20:36:23.359Z,4.18
2023-03-14T20:39:26.146Z,3.67
2023-03-14T20:42:29.150Z,6.18
2023-03-14T20:45:31.893Z,5.18
2023-03-14T20:48:35.310Z,3.70
2023-03-14T20:51:38.427Z,6.25
2023-03-14T20:54:42.791Z,6.60
2023-03-14T20:57:46.572Z,7.65
2023-03-14T21:00:55.404Z,5.38
2023-03-14T21:03:58.689Z,5.78
2023-03-14T21:07:02.324Z,7.75
2023-03-14T21:10:05.705Z,4.63
2023-03-14T21:13:09.166Z,5.28
2023-03-14T21:16:11.977Z,6.95
2023-03-14T21:19:15.056Z,5.20
2023-03-14T21:22:19.148Z,5.40
2023-03-14T21:25:22.219Z,5.07
2023-03-14T21:28:25.410Z,5.38
2023-03-14T21:31:32.099Z,3.58
2023-03-14T21:34:35.114Z,3.95
2023-03-14T21:37:38.135Z,4.82
2023-03-14T21:40:41.487Z,3.43
2023-03-14T21:43:45.962Z,4.65
2023-03-14T21:46:49.835Z,5.53
2023-03-14T21:49:53.989Z,4.38
2023-03-14T21:52:57.250Z,4.82
2023-03-14T21:56:00.124Z,5.63
2023-03-14T21:59:03.854Z,8.07
2023-03-14T22:02:12.228Z,5.32
2023-03-14T22:05:17.375Z,5.70
2023-03-14T22:08:20.822Z,3.95
2023-03-14T22:11:25.089Z,2.93
2023-03-14T22:14:27.860Z,3.15
2023-03-14T22:17:30.689Z,2.42
2023-03-14T22:20:35.838Z,2.67
2023-03-14T22:23:38.574Z,6.75
2023-03-14T22:26:41.468Z,3.27
2023-03-14T22:29:44.481Z,3.72
2023-03-14T22:32:47.620Z,3.45
2023-03-14T22:35:51.908Z,5.40
2023-03-14T22:38:54.759Z,5.57
2023-03-14T22:41:57.785Z,4.43
2023-03-14T22:45:00.560Z,5.63
2023-03-14T22:48:03.446Z,5.90
2023-03-14T22:51:09.451Z,4.40
2023-03-14T22:54:12.282Z,7.55
2023-03-14T22:57:14.996Z,7.77
2023-03-14T23:00:18.864Z,12.10
2023-03-14T23:03:23.010Z,4.50
2023-03-14T23:06:25.770Z,4.95
2023-03-14T23:09:28.535Z,6.45
2023-03-14T23:12:31.271Z,4.30
2023-03-14T23:15:34.624Z,6.50
2023-03-14T23:18:39.695Z,10.75
2023-03-14T23:21:42.553Z,9.18
2023-03-14T23:24:48.963Z,10.80
2023-03-14T23:27:54.368Z,10.33
2023-03-14T23:30:58.592Z,8.05
2023-03-14T23:34:02.114Z,5.13
2023-03-14T23:37:05.138Z,4.38
2023-03-14T23:40:08.395Z,3.42
2023-03-14T23:43:12.725Z,6.27
2023-03-14T23:46:16.665Z,4.93
2023-03-14T23:49:20.331Z,5.13
2023-03-14T23:52:23.186Z,4.70
2023-03-14T23:55:26.319Z,5.47
2023-03-14T23:58:30.926Z,1.50
